createdAt,value
2018-07-04T11:32:20.536Z,32.10
2018-07-04T11:35:06.783Z,33.60
2018-07-04T11:37:53.121Z,33.80
2018-07-04T11:40:39.362Z,33.90
2018-07-04T11:43:30.210Z,33.30
2018-07-04T11:45:59.257Z,33.40
2018-07-04T11:48:27.274Z,33.70
2018-07-04T11:50:55.846Z,33.80
2018-07-04T11:53:23.582Z,34.00
2018-07-04T11:55:51.347Z,33.90
2018-07-04T11:58:19.029Z,34.10
2018-07-04T12:00:46.817Z,34.30
2018-07-04T12:03:28.699Z,33.90
2018-07-04T12:06:15.234Z,33.10
2018-07-04T12:08:42.926Z,32.00
2018-07-04T12:11:10.606Z,32.10
2018-07-04T12:14:00.673Z,32.80
2018-07-04T12:16:28.422Z,33.20
2018-07-04T12:18:56.197Z,33.40
2018-07-04T12:21:23.944Z,33.90
2018-07-04T12:23:51.602Z,34.50
2018-07-04T12:26:19.262Z,35.70
2018-07-04T12:28:46.938Z,36.20
2018-07-04T12:31:14.681Z,36.00
2018-07-04T12:33:42.370Z,36.20
2018-07-04T12:36:10.117Z,36.80
2018-07-04T12:41:05.951Z,36.80
2018-07-04T12:43:56.026Z,35.30
2018-07-04T12:46:23.731Z,34.70
2018-07-04T12:48:53.533Z,35.10
2018-07-04T12:51:21.281Z,34.40
2018-07-04T12:53:54.962Z,34.40
2018-07-04T12:56:41.129Z,35.00
2018-07-04T12:59:27.282Z,34.00
2018-07-04T13:02:13.796Z,33.90
2018-07-04T13:05:00.028Z,33.80
2018-07-04T13:07:46.283Z,33.90
2018-07-04T13:10:32.870Z,34.30
2018-07-04T13:13:19.322Z,34.60
2018-07-04T13:16:06.849Z,35.20
2018-07-04T13:18:53.126Z,36.20
2018-07-04T13:21:39.326Z,36.90
2018-07-04T13:24:26.674Z,36.40
2018-07-04T13:27:12.917Z,36.20
2018-07-04T13:29:59.046Z,36.80
2018-07-04T13:35:26.582Z,36.00
2018-07-04T13:38:12.796Z,35.90
2018-07-04T13:43:44.151Z,36.50
2018-07-04T13:46:30.409Z,35.50
2018-07-04T13:49:16.675Z,36.20
2018-07-04T13:52:02.940Z,35.90
2018-07-04T13:54:49.209Z,34.70
2018-07-04T14:00:15.553Z,32.80
2018-07-04T14:03:03.844Z,33.20
2018-07-04T14:05:49.976Z,32.90
2018-07-04T14:08:36.160Z,34.90
2018-07-04T14:11:22.458Z,37.60
2018-07-04T14:14:10.884Z,38.50
2018-07-04T14:16:57.080Z,38.50
2018-07-04T14:19:43.357Z,37.20
2018-07-04T14:22:40.793Z,37.90
2018-07-04T14:25:27.083Z,38.60
2018-07-04T14:28:13.521Z,38.60
2018-07-04T14:30:59.640Z,38.00
2018-07-04T14:33:46.864Z,37.40
2018-07-04T14:36:33.367Z,38.00
2018-07-04T14:39:19.558Z,36.90
2018-07-04T14:42:05.705Z,37.70
2018-07-04T14:44:51.966Z,38.40
2018-07-04T14:47:38.264Z,38.10
2018-07-04T14:50:24.645Z,36.60
2018-07-04T14:53:20.317Z,37.40
2018-07-04T14:56:06.775Z,35.20
2018-07-04T14:58:53.137Z,34.60
2018-07-04T15:01:39.678Z,34.60
2018-07-04T15:04:28.294Z,34.40
2018-07-04T15:07:14.312Z,34.90
2018-07-04T15:10:00.577Z,35.20
2018-07-04T15:12:46.988Z,34.30
2018-07-04T15:15:33.521Z,34.50
2018-07-04T15:18:19.796Z,34.20
2018-07-04T15:21:06.219Z,33.50
2018-07-04T15:23:54.359Z,33.50
2018-07-04T15:26:40.697Z,33.40
2018-07-04T15:29:27.133Z,33.40
2018-07-04T15:32:13.343Z,33.40
2018-07-04T15:34:59.769Z,33.40
2018-07-04T15:37:46.057Z,33.70
2018-07-04T15:40:32.298Z,33.60
2018-07-04T15:43:18.493Z,33.40
2018-07-04T15:46:04.705Z,33.60
2018-07-04T15:48:50.940Z,33.70
2018-07-04T15:51:37.201Z,34.00
2018-07-04T15:54:24.399Z,34.30
2018-07-04T15:57:10.603Z,34.60
2018-07-04T15:59:58.078Z,34.90
2018-07-04T16:02:45.282Z,35.50
2018-07-04T16:05:31.425Z,36.00
2018-07-04T16:08:17.953Z,35.70
2018-07-04T16:11:04.331Z,35.40
2018-07-04T16:13:55.009Z,35.00
2018-07-04T16:16:41.295Z,34.30
2018-07-04T16:19:27.574Z,33.40
2018-07-04T16:22:14.032Z,33.10
2018-07-04T16:25:00.524Z,32.40
2018-07-04T16:27:46.810Z,31.60
2018-07-04T16:33:13.596Z,31.20
2018-07-04T16:35:59.884Z,30.60
2018-07-04T16:38:46.120Z,30.50
2018-07-04T16:41:32.337Z,30.10
2018-07-04T16:44:18.633Z,30.00
2018-07-04T16:47:04.685Z,29.70
2018-07-04T16:49:50.841Z,29.70
2018-07-04T16:52:42.140Z,29.40
2018-07-04T16:55:28.407Z,29.00
2018-07-04T16:58:14.599Z,28.60
2018-07-04T17:01:00.860Z,28.40
2018-07-04T17:03:48.121Z,28.20
2018-07-04T17:06:34.506Z,28.20
2018-07-04T17:09:20.742Z,28.30
2018-07-04T17:12:07.011Z,28.20
2018-07-04T17:14:53.253Z,28.20
2018-07-04T17:17:39.369Z,28.30
2018-07-04T17:20:25.580Z,28.40
2018-07-04T17:23:21.294Z,28.50
2018-07-04T17:26:07.576Z,28.50
2018-07-04T17:28:54.166Z,28.30
2018-07-04T17:31:40.557Z,28.10
2018-07-04T17:34:31.727Z,28.00
2018-07-04T17:37:18.027Z,28.00
2018-07-04T17:40:04.173Z,28.00
2018-07-04T17:42:51.395Z,27.80
2018-07-04T17:45:37.792Z,27.60
2018-07-04T17:48:24.145Z,27.30
2018-07-04T17:51:10.219Z,27.00
2018-07-04T17:54:04.850Z,26.70
2018-07-04T17:56:51.875Z,26.60
2018-07-04T17:59:38.476Z,26.40
2018-07-04T18:02:24.669Z,26.30
2018-07-04T18:05:11.256Z,26.30
2018-07-04T18:07:57.552Z,26.10
2018-07-04T18:10:43.941Z,26.10
2018-07-04T18:16:14.500Z,25.80
2018-07-04T18:19:00.737Z,25.70
2018-07-04T18:21:47.153Z,25.60
2018-07-04T18:24:35.431Z,25.50
2018-07-04T18:27:25.533Z,25.40
2018-07-04T18:30:11.856Z,25.30
2018-07-04T18:32:59.181Z,25.20
2018-07-04T18:35:45.405Z,25.10
2018-07-04T18:38:31.963Z,25.00
2018-07-04T18:41:18.250Z,24.90
2018-07-04T18:44:15.969Z,24.80
2018-07-04T18:47:02.433Z,24.70
2018-07-04T18:49:48.653Z,24.60
2018-07-04T18:52:34.945Z,24.60
2018-07-04T18:55:21.129Z,24.60
2018-07-04T18:58:07.428Z,24.40
2018-07-04T19:00:53.701Z,24.30
2018-07-04T19:03:50.228Z,24.20
2018-07-04T19:06:36.489Z,24.00
2018-07-04T19:09:22.873Z,23.90
2018-07-04T19:12:09.171Z,24.00
2018-07-04T19:14:55.385Z,23.90
2018-07-04T19:23:04.442Z,23.80
2018-07-04T19:25:50.712Z,23.80
2018-07-04T19:28:37.006Z,23.80
2018-07-04T19:31:23.131Z,23.80
2018-07-04T19:34:13.478Z,23.70
2018-07-04T19:36:59.633Z,23.70
2018-07-04T19:39:45.774Z,23.60
2018-07-04T19:42:48.842Z,23.50
2018-07-04T19:45:35.066Z,23.30
2018-07-04T19:48:21.537Z,23.20
2018-07-04T19:51:07.788Z,23.10
2018-07-04T19:53:54.248Z,23.00
2018-07-04T19:56:40.522Z,22.90
2018-07-04T19:59:26.853Z,22.70
2018-07-04T20:02:13.164Z,22.60
2018-07-04T20:04:59.281Z,22.50
2018-07-04T20:07:45.436Z,22.30
2018-07-04T20:10:31.699Z,22.20
2018-07-04T20:13:23.924Z,22.10
2018-07-04T20:16:10.144Z,22.10
2018-07-04T20:21:38.015Z,22.00
2018-07-04T20:24:24.514Z,21.90
2018-07-04T20:27:10.954Z,21.90
2018-07-04T20:29:57.204Z,21.80
2018-07-04T20:32:43.721Z,21.60
2018-07-04T20:35:29.826Z,21.50
2018-07-04T20:38:16.109Z,21.40
2018-07-04T20:41:02.382Z,21.30
2018-07-04T20:43:50.587Z,21.20
2018-07-04T20:46:36.766Z,21.10
2018-07-04T20:49:22.853Z,21.00
2018-07-04T20:52:09.207Z,20.80
2018-07-04T20:54:55.388Z,20.70
2018-07-04T20:57:41.714Z,20.20
2018-07-04T21:00:28.236Z,20.10
2018-07-04T21:03:15.545Z,20.10
2018-07-04T21:06:01.777Z,20.10
2018-07-04T21:08:48.124Z,20.10
2018-07-04T21:11:34.329Z,20.10
2018-07-04T21:14:37.308Z,19.80
2018-07-04T21:17:23.422Z,19.90
2018-07-04T21:20:09.828Z,19.70
2018-07-04T21:22:57.166Z,19.60
2018-07-04T21:25:43.308Z,19.40
2018-07-04T21:28:29.713Z,19.30
2018-07-04T21:31:16.045Z,19.20
2018-07-04T21:34:02.341Z,19.20
2018-07-04T21:36:48.660Z,19.20
2018-07-04T21:39:34.813Z,19.20
2018-07-04T21:42:21.637Z,19.30
2018-07-04T21:45:08.009Z,19.20
2018-07-04T21:47:54.164Z,18.90
2018-07-04T21:50:40.521Z,18.90
2018-07-04T21:53:30.824Z,19.00
2018-07-04T21:56:17.095Z,19.00
2018-07-04T21:59:03.104Z,18.90
2018-07-04T22:01:49.501Z,18.90
2018-07-04T22:04:35.754Z,18.80
2018-07-04T22:07:21.853Z,18.70
2018-07-04T22:10:08.029Z,18.70
2018-07-04T22:13:05.441Z,18.60
2018-07-04T22:15:51.773Z,18.60
2018-07-04T22:18:38.229Z,18.60
2018-07-04T22:21:24.526Z,18.50
2018-07-04T22:24:11.839Z,18.30
2018-07-04T22:26:58.117Z,18.20
2018-07-04T22:32:24.464Z,18.20
2018-07-04T22:35:10.774Z,18.00
2018-07-04T22:37:57.138Z,18.00
2018-07-04T22:40:43.468Z,18.00
2018-07-04T22:46:19.514Z,17.60
2018-07-04T22:49:05.933Z,17.60
2018-07-04T22:51:52.353Z,17.60
2018-07-04T22:54:49.633Z,17.60
2018-07-04T22:57:35.990Z,17.50
2018-07-04T23:00:22.262Z,17.40
2018-07-04T23:03:17.301Z,17.40
2018-07-04T23:06:03.770Z,17.10
2018-07-04T23:08:50.134Z,17.20
2018-07-04T23:11:36.527Z,17.30
2018-07-04T23:14:23.960Z,17.10
2018-07-04T23:17:10.255Z,17.00
2018-07-04T23:19:56.581Z,17.10
2018-07-04T23:22:50.133Z,17.10
2018-07-04T23:25:36.336Z,16.90
2018-07-04T23:28:22.810Z,16.90
2018-07-04T23:31:09.172Z,16.90
2018-07-04T23:33:55.648Z,16.80
2018-07-04T23:36:42.053Z,16.70
2018-07-04T23:39:28.492Z,16.80
2018-07-04T23:42:14.794Z,16.80
2018-07-04T23:45:01.090Z,16.80
2018-07-04T23:50:27.406Z,16.70
2018-07-04T23:53:22.294Z,16.70
2018-07-04T23:56:08.610Z,16.60
2018-07-04T23:58:54.898Z,16.70
